ADDS METAR Data INFO
IDs: Format: Raw Decoded Include TAF

Data at: 0934 UTC 25 Jun 2018

KTUS 250853Z 00000KT 10SM CLR 27/11 A2996 RMK AO2 SLP089 T02670106 53010
KTUS 250753Z 22005KT 10SM CLR 28/11 A2995 RMK AO2 SLP084 T02830106
KTUS 250653Z 32005KT 10SM CLR 29/10 A2994 RMK AO2 SLP081 T02940100 403780272
KTUS 250553Z 26007KT 10SM CLR 30/09 A2993 RMK AO2 SLP078 T03000094 10378 20300 51016
KTUS 250453Z 27007KT 10SM CLR 32/07 A2992 RMK AO2 SLP075 T03170067
KTUS 250353Z 30006KT 10SM CLR 33/04 A2989 RMK AO2 SLP066 T03330044
KTUS 250253Z 30006KT 10SM CLR 34/05 A2988 RMK AO2 SLP062 T03440050 55002
KTUS 250153Z 31008KT 10SM CLR 36/04 A2987 RMK AO2 SLP058 T03610044
KTUS 250053Z 28011G18KT 10SM CLR 37/06 A2987 RMK AO2 SLP058 T03670056
KTUS 242353Z 31006G18KT 10SM CLR 37/07 A2989 RMK AO2 SLP063 T03720067 10378 20328 58018
KTUS 242253Z 29005G19KT 10SM CLR 37/09 A2991 RMK AO2 SLP070 T03670094
KTUS 242153Z 23008G14KT 210V280 10SM CLR 36/11 A2993 RMK AO2 SLP077 T03610106
KTUS 242053Z 26014G19KT 10SM CLR 37/07 A2994 RMK AO2 SLP081 T03670067 58016
KTUS 241953Z 20010KT 10SM CLR 36/12 A2996 RMK AO2 SLP087 T03610117
KTUS 241853Z 00000KT 10SM CLR 34/12 A2998 RMK AO2 SLP095 T03390117
KTUS 241753Z 26014KT 10SM CLR 33/13 A2999 RMK AO2 SLP100 T03280128 10339 20272 51004
KTUS 241702Z 26014KT 10SM CLR 33/14 A2999 RMK AO2 T03280144
KTUS 241653Z 10SM CLR 32/14 A2999 RMK AO2 SLP098 T03170144
KTUS 241553Z 18016KT 10SM CLR 31/16 A2999 RMK AO2 SLP098 T03110161
KTUS 241453Z 10SM CLR 29/16 A2998 RMK AO2 SLP095 T02890161 51019
KTUS 241353Z 19013KT 10SM CLR 28/16 A2997 RMK AO2 SLP091 T02780161
KTUS 241253Z 20012KT 10SM CLR 27/16 A2994 RMK AO2 SLP084 T02720161
KTUS 241153Z 20010KT 10SM CLR 28/16 A2992 RMK AO2 SLP075 T02780156 10311 20278 53008
KTUS 241053Z 19011KT 10SM CLR 28/14 A2990 RMK AO2 SLP069 T02830144
KTUS 240953Z 19009KT 10SM CLR 29/14 A2989 RMK AO2 SLP065 T02890139
KTUS 240853Z 19009KT 10SM CLR 29/12 A2989 RMK AO2 SLP064 T02940122 51005
KTUS 240753Z 30006KT 10SM CLR 30/12 A2989 RMK AO2 SLP064 T03000117
KTUS 240653Z 30006KT 10SM CLR 31/11 A2989 RMK AO2 SLP062 T03060111 403890228
KTUS 240553Z 27011KT 7SM BLDU CLR 31/12 A2988 RMK AO2 SLP060 T03110117 10383 20311 52012
KTUS 240459Z 27011KT 6SM BLDU CLR 32/12 A2987 RMK AO2 T03220117
KTUS 240453Z 28015KT 6SM HZ CLR 32/12 A2987 RMK AO2 SLP057 T03220117
KTUS 240353Z 24008KT 10SM CLR 34/10 A2985 RMK AO2 SLP051 T03390100
KTUS 240253Z 24005KT 10SM CLR 35/07 A2984 RMK AO2 SLP047 T03500067 53001
KTUS 240153Z 27009KT 10SM CLR 37/06 A2983 RMK AO2 SLP044 T03670056
KTUS 240053Z COR 280/08 10SM CLR 37/06 A2983 RMK AO2 SLP047 T03720061
KTUS 232353Z 21008KT 180V290 10SM CLR 38/08 A2984 RMK AO2 SLP049 T03780078 10389 20339 56016
KTUS 232253Z 28014G21KT 10SM CLR 38/02 A2986 RMK AO2 SLP054 T03830022
KTUS 232153Z 29010G17KT 10SM CLR 38/07 A2986 RMK AO2 SLP054 T03830072